createdAt,value
2022-12-23T00:00:41.705Z,3.34
2022-12-23T00:03:09.252Z,3.29
2022-12-23T00:05:40.801Z,3.15
2022-12-23T00:08:08.137Z,3.14
2022-12-23T00:10:39.081Z,2.97
2022-12-23T00:13:25.300Z,2.97
2022-12-23T00:16:20.956Z,2.66
2022-12-23T00:18:48.135Z,2.86
2022-12-23T00:21:17.558Z,2.84
2022-12-23T00:23:48.305Z,2.81
2022-12-23T00:26:27.249Z,2.94
2022-12-23T00:28:58.201Z,2.90
2022-12-23T00:31:25.597Z,2.85
2022-12-23T00:33:54.452Z,2.86
2022-12-23T00:36:27.878Z,2.83
2022-12-23T00:39:17.778Z,2.68
2022-12-23T00:42:04.475Z,2.62
2022-12-23T00:44:32.359Z,2.58
2022-12-23T00:46:59.479Z,2.46
2022-12-23T00:49:44.817Z,2.45
2022-12-23T00:52:18.277Z,2.44
2022-12-23T00:54:45.378Z,2.32
2022-12-23T00:57:12.688Z,2.35
2022-12-23T00:59:39.821Z,2.35
2022-12-23T01:02:26.075Z,2.26
2022-12-23T01:05:11.739Z,2.24
2022-12-23T01:07:39.288Z,2.21
2022-12-23T01:10:06.552Z,2.17
2022-12-23T01:12:33.560Z,2.03
2022-12-23T01:15:00.706Z,1.96
2022-12-23T01:17:27.985Z,1.92
2022-12-23T01:19:55.421Z,1.87
2022-12-23T01:22:22.667Z,1.89
2022-12-23T01:24:49.872Z,1.83
2022-12-23T01:27:17.021Z,1.79
2022-12-23T01:29:44.061Z,1.86
2022-12-23T01:32:11.137Z,1.86
2022-12-23T01:34:38.219Z,1.92
2022-12-23T01:37:05.871Z,1.98
2022-12-23T01:39:33.009Z,1.93
2022-12-23T01:42:18.751Z,1.94
2022-12-23T01:45:01.157Z,2.04
2022-12-23T01:47:34.149Z,2.01
2022-12-23T01:50:12.228Z,1.99
2022-12-23T01:53:06.997Z,2.00
2022-12-23T01:56:05.216Z,2.06
2022-12-23T01:58:34.550Z,2.06
2022-12-23T02:01:20.678Z,2.03
2022-12-23T02:03:50.839Z,2.06
2022-12-23T02:07:09.445Z,2.34
2022-12-23T02:09:39.021Z,2.28
2022-12-23T02:12:15.627Z,2.23
2022-12-23T02:15:28.931Z,2.25
2022-12-23T02:17:58.955Z,2.18
2022-12-23T02:20:47.376Z,2.19
2022-12-23T02:23:45.459Z,2.13
2022-12-23T02:26:27.784Z,2.05
2022-12-23T02:29:33.443Z,2.07
2022-12-23T02:32:14.852Z,2.02
2022-12-23T02:34:51.161Z,2.04
2022-12-23T02:37:51.575Z,2.10
2022-12-23T02:40:24.620Z,2.01
2022-12-23T02:42:58.810Z,2.04
2022-12-23T02:45:40.010Z,1.97
2022-12-23T02:48:16.182Z,1.99
2022-12-23T02:50:45.544Z,2.02
2022-12-23T02:53:29.637Z,2.04
2022-12-23T02:55:59.407Z,1.94
2022-12-23T02:58:32.812Z,1.88
2022-12-23T03:01:02.559Z,1.79
2022-12-23T03:03:29.710Z,1.75
2022-12-23T03:05:57.128Z,1.69
2022-12-23T03:08:31.882Z,1.62
2022-12-23T03:11:04.622Z,1.88
2022-12-23T03:13:59.856Z,1.55
2022-12-23T03:16:29.195Z,1.42
2022-12-23T03:19:26.411Z,1.44
2022-12-23T03:22:01.405Z,1.27
2022-12-23T03:24:53.753Z,1.25
2022-12-23T03:28:00.156Z,1.19
2022-12-23T03:30:29.773Z,1.05
2022-12-23T03:33:12.874Z,1.06
2022-12-23T03:35:49.278Z,1.00
2022-12-23T03:38:19.328Z,0.99
2022-12-23T03:40:53.214Z,0.98
2022-12-23T03:43:26.142Z,0.93
2022-12-23T03:45:59.480Z,0.95
2022-12-23T03:48:52.230Z,0.98
2022-12-23T03:51:45.498Z,0.86
2022-12-23T03:54:18.431Z,0.81
2022-12-23T03:57:01.643Z,0.79
2022-12-23T03:59:43.113Z,0.65
2022-12-23T04:02:47.515Z,0.76
2022-12-23T04:05:20.819Z,0.67
2022-12-23T04:08:22.823Z,0.69
2022-12-23T04:10:50.799Z,0.62
2022-12-23T04:13:18.232Z,0.62
2022-12-23T04:15:45.725Z,0.58
2022-12-23T04:18:13.413Z,0.64
2022-12-23T04:20:40.581Z,0.74
2022-12-23T04:23:07.926Z,0.78
2022-12-23T04:25:35.039Z,0.75
2022-12-23T04:28:02.196Z,0.82
2022-12-23T04:30:33.933Z,0.88
2022-12-23T04:33:02.183Z,0.96
2022-12-23T04:35:30.301Z,1.01
2022-12-23T04:37:57.560Z,1.00
2022-12-23T04:40:24.624Z,0.99
2022-12-23T04:42:52.340Z,0.98
2022-12-23T04:45:19.621Z,0.93
2022-12-23T04:47:46.835Z,0.92
2022-12-23T04:50:15.668Z,0.83
2022-12-23T04:52:44.208Z,0.85
2022-12-23T04:55:11.643Z,0.85
2022-12-23T04:57:40.220Z,0.81
2022-12-23T05:00:08.202Z,0.82
2022-12-23T05:02:35.335Z,0.85
2022-12-23T05:05:02.625Z,0.80
2022-12-23T05:07:30.250Z,0.78
2022-12-23T05:10:02.008Z,0.79
2022-12-23T05:12:31.001Z,0.80
2022-12-23T05:14:58.059Z,0.77
2022-12-23T05:17:25.195Z,0.84
2022-12-23T05:19:52.649Z,0.87
2022-12-23T05:22:19.695Z,0.80
2022-12-23T05:24:47.112Z,0.81
2022-12-23T05:27:14.446Z,0.85
2022-12-23T05:29:41.625Z,0.88
2022-12-23T05:32:09.283Z,0.93
2022-12-23T05:34:36.549Z,0.91
2022-12-23T05:37:03.779Z,0.69
2022-12-23T05:39:31.011Z,0.91
2022-12-23T05:41:58.379Z,0.90
2022-12-23T05:44:25.506Z,0.95
2022-12-23T05:46:52.774Z,0.92
2022-12-23T05:49:19.869Z,1.04
2022-12-23T05:51:46.937Z,1.11
2022-12-23T05:54:14.567Z,1.06
2022-12-23T05:56:41.639Z,1.09
2022-12-23T05:59:09.323Z,1.11
2022-12-23T06:01:36.418Z,1.02
2022-12-23T06:04:04.004Z,1.01
2022-12-23T06:06:31.190Z,1.10
2022-12-23T06:09:00.163Z,1.09
2022-12-23T06:11:28.177Z,1.16
2022-12-23T06:13:55.449Z,1.14
2022-12-23T06:16:23.109Z,1.23
2022-12-23T06:18:55.658Z,1.27
2022-12-23T06:21:22.881Z,1.32
2022-12-23T06:23:50.047Z,1.47
2022-12-23T06:26:17.225Z,1.55
2022-12-23T06:28:44.767Z,1.53
2022-12-23T06:31:11.825Z,1.59
2022-12-23T06:33:38.909Z,1.54
2022-12-23T06:36:06.893Z,1.59
2022-12-23T06:38:34.008Z,1.75
2022-12-23T06:41:01.139Z,1.73
2022-12-23T06:43:28.200Z,1.75
2022-12-23T06:45:55.564Z,1.79
2022-12-23T06:48:22.733Z,1.90
2022-12-23T06:50:49.892Z,1.94
2022-12-23T06:53:16.997Z,1.92
2022-12-23T06:55:45.248Z,1.94
2022-12-23T06:58:12.428Z,2.04
2022-12-23T07:00:39.522Z,2.12
2022-12-23T07:03:07.026Z,2.09
2022-12-23T07:05:37.611Z,2.15
2022-12-23T07:08:05.890Z,2.27
2022-12-23T07:10:34.291Z,2.35
2022-12-23T07:13:01.722Z,2.44
2022-12-23T07:15:28.910Z,2.51
2022-12-23T07:17:56.093Z,2.61
2022-12-23T07:20:23.124Z,2.62
2022-12-23T07:22:53.498Z,2.67
2022-12-23T07:25:20.775Z,2.84
2022-12-23T07:27:47.986Z,2.92
2022-12-23T07:30:15.366Z,3.17
2022-12-23T07:32:42.489Z,3.25
2022-12-23T07:35:09.987Z,3.41
2022-12-23T07:37:39.346Z,3.58
2022-12-23T07:40:08.939Z,3.59
2022-12-23T07:42:46.106Z,3.69
2022-12-23T07:45:13.925Z,3.83
2022-12-23T07:47:41.908Z,3.98
2022-12-23T07:50:09.625Z,4.12
2022-12-23T07:52:36.692Z,4.14
2022-12-23T07:55:04.162Z,4.25
2022-12-23T07:57:37.707Z,4.35
2022-12-23T08:00:12.481Z,4.48
2022-12-23T08:02:39.998Z,4.47
2022-12-23T08:05:08.101Z,4.83
2022-12-23T08:07:35.925Z,5.09
2022-12-23T08:10:04.232Z,5.31
2022-12-23T08:12:31.478Z,5.43
2022-12-23T08:14:58.583Z,5.51
2022-12-23T08:17:30.519Z,5.75
2022-12-23T08:19:57.798Z,5.88
2022-12-23T08:22:25.045Z,6.04
2022-12-23T08:24:52.910Z,6.04
2022-12-23T08:27:19.993Z,6.03
2022-12-23T08:29:47.080Z,5.99
2022-12-23T08:32:14.405Z,5.88
2022-12-23T08:34:41.621Z,6.07
2022-12-23T08:37:09.040Z,6.07
2022-12-23T08:39:36.390Z,6.21
2022-12-23T08:42:04.114Z,6.13
2022-12-23T08:44:32.930Z,6.21
2022-12-23T08:47:00.184Z,6.14
2022-12-23T08:49:27.303Z,5.97
2022-12-23T08:51:54.400Z,5.91
2022-12-23T08:54:22.343Z,5.86
2022-12-23T08:56:49.736Z,5.80
2022-12-23T08:59:19.468Z,5.91
2022-12-23T09:01:48.196Z,5.90
2022-12-23T09:04:15.830Z,5.89
2022-12-23T09:06:43.705Z,5.79
2022-12-23T09:09:13.375Z,5.82
2022-12-23T09:11:40.465Z,5.83
2022-12-23T09:14:10.676Z,5.73
2022-12-23T09:16:38.067Z,5.99
2022-12-23T09:19:05.328Z,6.12
2022-12-23T09:21:32.794Z,6.13
2022-12-23T09:24:00.145Z,6.20
2022-12-23T09:26:30.180Z,6.17
2022-12-23T09:28:57.917Z,6.29
2022-12-23T09:31:30.505Z,6.26
2022-12-23T09:34:03.526Z,6.48
2022-12-23T09:36:30.694Z,6.49
2022-12-23T09:38:58.841Z,6.63
2022-12-23T09:41:48.865Z,6.76
2022-12-23T09:45:08.254Z,6.92
2022-12-23T09:47:35.857Z,6.91
2022-12-23T09:50:29.208Z,7.16
2022-12-23T09:53:03.841Z,7.17
2022-12-23T09:55:40.496Z,7.13
2022-12-23T09:58:17.809Z,7.30
2022-12-23T10:01:11.847Z,7.31
2022-12-23T10:04:04.574Z,7.48
2022-12-23T10:06:34.253Z,7.39
2022-12-23T10:09:03.967Z,7.54
2022-12-23T10:11:41.166Z,7.50
2022-12-23T10:14:18.961Z,7.56
2022-12-23T10:16:55.591Z,7.67
2022-12-23T10:19:46.099Z,7.77
2022-12-23T10:22:20.290Z,7.79
2022-12-23T10:24:51.689Z,7.68
2022-12-23T10:27:28.191Z,7.57
2022-12-23T10:29:56.687Z,7.71
2022-12-23T10:32:42.665Z,7.73
2022-12-23T10:35:38.107Z,7.76
2022-12-23T10:38:08.223Z,7.95
2022-12-23T10:41:12.913Z,8.08
2022-12-23T10:44:31.791Z,7.79
2022-12-23T10:47:04.699Z,7.76
2022-12-23T10:49:50.914Z,7.65
2022-12-23T10:52:21.345Z,7.77
2022-12-23T10:54:48.791Z,7.92
2022-12-23T10:57:18.110Z,7.88
2022-12-23T10:59:46.020Z,7.76
2022-12-23T11:02:13.490Z,7.73
2022-12-23T11:04:47.107Z,7.86
2022-12-23T11:07:43.291Z,7.83
2022-12-23T11:10:17.386Z,7.97
2022-12-23T11:12:50.399Z,7.93
2022-12-23T11:15:38.772Z,8.05
2022-12-23T11:18:07.705Z,8.13
2022-12-23T11:20:37.212Z,8.08
2022-12-23T11:23:06.249Z,7.99
2022-12-23T11:25:38.139Z,8.07
2022-12-23T11:28:14.254Z,8.06
2022-12-23T11:30:56.334Z,8.00
2022-12-23T11:33:33.037Z,7.84
2022-12-23T11:36:15.258Z,7.82
2022-12-23T11:39:03.122Z,7.83
2022-12-23T11:41:38.338Z,7.73
2022-12-23T11:44:27.659Z,7.91
2022-12-23T11:46:55.585Z,8.11
2022-12-23T11:49:31.756Z,8.21
2022-12-23T11:52:15.229Z,8.05
2022-12-23T11:54:54.372Z,8.02
2022-12-23T11:57:35.276Z,8.01
2022-12-23T12:00:06.518Z,8.02
2022-12-23T12:02:55.049Z,8.07
2022-12-23T12:05:33.037Z,8.11
2022-12-23T12:08:10.580Z,8.05
2022-12-23T12:10:40.289Z,7.86
2022-12-23T12:13:23.938Z,7.84
2022-12-23T12:16:10.884Z,7.84
2022-12-23T12:18:42.297Z,7.74
2022-12-23T12:21:21.363Z,7.66
2022-12-23T12:23:48.711Z,7.64
2022-12-23T12:26:37.282Z,7.74
2022-12-23T12:29:19.297Z,7.80
2022-12-23T12:31:50.829Z,7.92
2022-12-23T12:34:33.935Z,8.00
2022-12-23T12:37:27.469Z,8.15
2022-12-23T12:40:01.518Z,8.13
2022-12-23T12:42:49.318Z,8.41
2022-12-23T12:45:24.416Z,8.06
2022-12-23T12:48:24.252Z,8.01
2022-12-23T12:50:57.042Z,7.94
2022-12-23T12:53:24.989Z,7.91
2022-12-23T12:56:00.529Z,7.84
2022-12-23T12:58:27.879Z,7.72
2022-12-23T13:01:01.524Z,7.76
2022-12-23T13:03:59.266Z,7.75
2022-12-23T13:07:02.037Z,7.67
2022-12-23T13:09:51.660Z,7.57
2022-12-23T13:12:40.278Z,7.38
2022-12-23T13:15:49.165Z,7.13
2022-12-23T13:19:01.959Z,7.03
2022-12-23T13:21:37.197Z,6.89
2022-12-23T13:24:22.936Z,6.72
2022-12-23T13:27:22.489Z,6.69
2022-12-23T13:30:14.471Z,6.45
2022-12-23T13:33:08.246Z,6.26
2022-12-23T13:36:05.403Z,6.11
2022-12-23T13:38:39.521Z,6.14
2022-12-23T13:41:32.079Z,6.07
2022-12-23T13:44:01.995Z,6.01
2022-12-23T13:46:38.541Z,6.20
2022-12-23T13:49:24.505Z,6.21
2022-12-23T13:52:15.705Z,6.22
2022-12-23T13:54:54.996Z,6.18
2022-12-23T13:58:00.021Z,6.01
2022-12-23T14:00:34.767Z,5.83
2022-12-23T14:03:02.169Z,5.80
2022-12-23T14:05:45.483Z,5.78
2022-12-23T14:08:40.727Z,5.71
2022-12-23T14:11:20.899Z,5.71
2022-12-23T14:13:50.986Z,5.64
2022-12-23T14:16:21.608Z,5.60
2022-12-23T14:18:56.642Z,5.54
2022-12-23T14:21:42.026Z,5.74
2022-12-23T14:24:43.319Z,5.64
2022-12-23T14:27:49.602Z,5.61
2022-12-23T14:30:18.217Z,5.72
2022-12-23T14:32:50.262Z,5.48
2022-12-23T14:35:22.642Z,5.43
2022-12-23T14:38:05.918Z,5.53
2022-12-23T14:40:39.115Z,5.44
2022-12-23T14:43:23.678Z,5.45
2022-12-23T14:45:54.787Z,5.41
2022-12-23T14:48:34.204Z,5.42
2022-12-23T14:51:21.167Z,5.41
2022-12-23T14:53:54.675Z,5.51
2022-12-23T14:56:28.761Z,5.49
2022-12-23T14:59:14.624Z,5.51
2022-12-23T15:01:54.587Z,5.55
2022-12-23T15:04:50.012Z,5.63
2022-12-23T15:07:28.803Z,5.59
2022-12-23T15:10:02.263Z,5.55
2022-12-23T15:12:36.318Z,5.48
2022-12-23T15:15:13.638Z,5.42
2022-12-23T15:17:40.985Z,5.39
2022-12-23T15:20:14.844Z,5.39
2022-12-23T15:22:46.265Z,5.35
2022-12-23T15:25:22.648Z,5.39
2022-12-23T15:27:53.480Z,5.32
2022-12-23T15:30:24.634Z,5.44
2022-12-23T15:32:58.628Z,5.37
2022-12-23T15:35:32.185Z,5.40
2022-12-23T15:38:01.868Z,5.29
2022-12-23T15:40:28.902Z,5.39
2022-12-23T15:42:56.513Z,5.30
2022-12-23T15:45:32.528Z,5.32
2022-12-23T15:48:03.090Z,5.18
2022-12-23T15:50:31.414Z,5.08
2022-12-23T15:53:04.927Z,5.06
2022-12-23T15:55:34.529Z,5.01
2022-12-23T15:58:03.249Z,4.90
2022-12-23T16:00:42.124Z,4.93
2022-12-23T16:03:32.649Z,4.91
2022-12-23T16:06:21.458Z,4.87
2022-12-23T16:09:01.957Z,4.64
2022-12-23T16:11:47.851Z,4.66
2022-12-23T16:14:24.762Z,4.61
2022-12-23T16:16:53.208Z,4.48
2022-12-23T16:19:53.376Z,4.59
2022-12-23T16:22:21.042Z,4.43
2022-12-23T16:24:48.073Z,4.46
2022-12-23T16:27:25.640Z,4.34
2022-12-23T16:29:52.775Z,4.22
2022-12-23T16:32:20.400Z,4.24
2022-12-23T16:34:51.478Z,4.34
2022-12-23T16:37:18.562Z,4.36
2022-12-23T16:39:45.783Z,4.40
2022-12-23T16:42:12.957Z,4.55
2022-12-23T16:44:39.961Z,4.53
2022-12-23T16:47:13.780Z,4.56
2022-12-23T16:49:41.098Z,4.41
2022-12-23T16:52:12.908Z,4.53
2022-12-23T16:54:40.209Z,4.46
2022-12-23T16:57:09.401Z,4.65
2022-12-23T16:59:37.735Z,4.68
2022-12-23T17:02:04.868Z,4.59
2022-12-23T17:04:32.023Z,4.74
2022-12-23T17:06:59.164Z,4.69
2022-12-23T17:09:26.479Z,4.73
2022-12-23T17:11:54.387Z,4.76
2022-12-23T17:14:24.500Z,4.76
2022-12-23T17:16:52.569Z,4.83
2022-12-23T17:19:27.756Z,4.97
2022-12-23T17:22:01.302Z,4.93
2022-12-23T17:24:28.670Z,4.85
2022-12-23T17:26:57.099Z,4.94
2022-12-23T17:29:24.708Z,4.91
2022-12-23T17:31:52.917Z,4.87
2022-12-23T17:34:23.200Z,4.79
2022-12-23T17:36:51.460Z,4.76
2022-12-23T17:39:19.651Z,4.69
2022-12-23T17:41:47.410Z,4.78
2022-12-23T17:44:16.112Z,4.78
2022-12-23T17:46:43.733Z,4.78
2022-12-23T17:49:11.975Z,4.85
2022-12-23T17:51:40.324Z,4.86
2022-12-23T17:54:11.919Z,4.94
2022-12-23T17:56:39.212Z,5.07
2022-12-23T17:59:06.424Z,5.07
2022-12-23T18:01:33.793Z,5.01
2022-12-23T18:04:00.985Z,4.98
2022-12-23T18:06:29.502Z,4.92
2022-12-23T18:08:57.980Z,4.94
2022-12-23T18:11:44.553Z,4.93
2022-12-23T18:14:18.516Z,4.80
2022-12-23T18:16:46.543Z,4.73
2022-12-23T18:19:19.090Z,4.63
2022-12-23T18:21:47.143Z,4.56
2022-12-23T18:24:14.266Z,4.34
2022-12-23T18:26:41.713Z,4.31
2022-12-23T18:29:09.215Z,4.30
2022-12-23T18:31:49.992Z,4.47
2022-12-23T18:34:18.671Z,4.32
2022-12-23T18:36:46.601Z,4.37
2022-12-23T18:39:13.871Z,4.46
2022-12-23T18:41:42.066Z,4.54
2022-12-23T18:44:18.893Z,4.49
2022-12-23T18:46:46.527Z,4.46
2022-12-23T18:49:14.135Z,4.46
2022-12-23T18:51:41.221Z,4.47
2022-12-23T18:54:14.504Z,4.52
2022-12-23T18:56:41.784Z,4.49
2022-12-23T18:59:27.437Z,4.53
2022-12-23T19:02:00.179Z,4.52
2022-12-23T19:04:27.707Z,4.43
2022-12-23T19:06:56.689Z,4.40
2022-12-23T19:09:25.515Z,4.45
2022-12-23T19:11:54.437Z,4.21
2022-12-23T19:14:22.007Z,4.10
2022-12-23T19:16:52.026Z,3.86
2022-12-23T19:19:20.568Z,3.65
2022-12-23T19:21:47.898Z,3.66
2022-12-23T19:24:15.158Z,3.50
2022-12-23T19:26:42.526Z,3.61
2022-12-23T19:29:09.620Z,3.77
2022-12-23T19:31:36.982Z,3.51
2022-12-23T19:34:06.058Z,3.54
2022-12-23T19:36:36.628Z,3.37
2022-12-23T19:39:04.665Z,3.18
2022-12-23T19:41:31.792Z,3.22
2022-12-23T19:43:58.921Z,3.16
2022-12-23T19:46:26.055Z,3.07
2022-12-23T19:48:53.657Z,2.98
2022-12-23T19:51:21.020Z,2.88
2022-12-23T19:53:50.926Z,2.80
2022-12-23T19:56:22.564Z,2.73
2022-12-23T19:58:50.407Z,2.56
2022-12-23T20:01:20.168Z,2.46
2022-12-23T20:03:49.171Z,2.29
2022-12-23T20:06:26.416Z,2.26
2022-12-23T20:08:59.781Z,2.20
2022-12-23T20:11:30.721Z,2.22
2022-12-23T20:13:59.025Z,2.25
2022-12-23T20:16:27.412Z,2.26
2022-12-23T20:18:54.886Z,2.42
2022-12-23T20:21:22.373Z,2.28
2022-12-23T20:23:49.754Z,2.25
2022-12-23T20:26:20.834Z,2.08
2022-12-23T20:28:48.063Z,2.18
2022-12-23T20:31:19.124Z,2.23
2022-12-23T20:33:47.280Z,2.20
2022-12-23T20:36:16.354Z,2.06
2022-12-23T20:38:45.885Z,2.00
2022-12-23T20:41:16.687Z,1.88
2022-12-23T20:43:46.072Z,1.86
2022-12-23T20:46:22.719Z,1.90
2022-12-23T20:48:50.502Z,1.96
2022-12-23T20:51:20.713Z,1.80
2022-12-23T20:53:47.979Z,1.86
2022-12-23T20:56:18.155Z,1.80
2022-12-23T20:59:02.662Z,1.77
2022-12-23T21:01:35.429Z,1.74
2022-12-23T21:04:05.552Z,1.70
2022-12-23T21:06:34.006Z,1.61
2022-12-23T21:09:04.357Z,1.58
2022-12-23T21:11:34.406Z,1.57
2022-12-23T21:14:06.315Z,1.54
2022-12-23T21:16:37.211Z,1.49
2022-12-23T21:19:06.597Z,1.57
2022-12-23T21:21:34.194Z,1.51
2022-12-23T21:24:04.965Z,1.42
2022-12-23T21:26:34.412Z,1.32
2022-12-23T21:29:04.322Z,1.09
2022-12-23T21:31:34.113Z,0.80
2022-12-23T21:34:01.861Z,0.77
2022-12-23T21:36:32.088Z,0.78
2022-12-23T21:39:00.507Z,0.88
2022-12-23T21:41:31.190Z,0.95
2022-12-23T21:44:00.312Z,1.12
2022-12-23T21:46:28.999Z,1.18
2022-12-23T21:48:57.608Z,1.04
2022-12-23T21:51:38.874Z,0.97
2022-12-23T21:54:07.974Z,0.86
2022-12-23T21:56:36.197Z,0.76
2022-12-23T21:59:10.414Z,0.92
2022-12-23T22:01:37.706Z,0.96
2022-12-23T22:04:05.019Z,1.02
2022-12-23T22:06:36.677Z,0.98
2022-12-23T22:09:06.064Z,1.18
2022-12-23T22:11:35.427Z,1.17
2022-12-23T22:14:04.422Z,1.27
2022-12-23T22:16:32.391Z,1.24
2022-12-23T22:19:01.334Z,1.28
2022-12-23T22:21:32.034Z,1.30
2022-12-23T22:24:02.909Z,1.37
2022-12-23T22:26:32.625Z,1.34
2022-12-23T22:29:01.702Z,1.36
2022-12-23T22:31:34.524Z,1.35
2022-12-23T22:34:02.285Z,1.37
2022-12-23T22:36:29.836Z,1.43
2022-12-23T22:38:59.527Z,1.21
2022-12-23T22:41:28.135Z,1.17
2022-12-23T22:43:56.244Z,1.16
2022-12-23T22:46:24.799Z,0.94
2022-12-23T22:48:53.220Z,0.71
2022-12-23T22:51:26.885Z,0.67
2022-12-23T22:53:54.790Z,0.55
2022-12-23T22:56:23.470Z,0.40
2022-12-23T22:58:51.198Z,0.35
2022-12-23T23:01:33.674Z,0.44
2022-12-23T23:04:02.899Z,0.21
2022-12-23T23:06:39.718Z,0.26
2022-12-23T23:09:09.601Z,0.24
2022-12-23T23:11:37.027Z,0.34
2022-12-23T23:14:04.255Z,0.37
2022-12-23T23:16:32.021Z,0.45
2022-12-23T23:19:00.138Z,0.49
2022-12-23T23:21:27.475Z,0.55
2022-12-23T23:23:55.229Z,0.47
2022-12-23T23:26:27.081Z,0.59
2022-12-23T23:28:56.323Z,0.45
2022-12-23T23:34:11.360Z,0.45
2022-12-23T23:36:39.648Z,0.50
2022-12-23T23:39:06.816Z,0.54
2022-12-23T23:41:34.468Z,0.66
2022-12-23T23:44:01.572Z,0.80
2022-12-23T23:46:29.058Z,0.75
2022-12-23T23:48:56.147Z,0.67
2022-12-23T23:51:23.430Z,0.62
2022-12-23T23:53:50.518Z,0.78
2022-12-23T23:56:23.842Z,0.82
2022-12-23T23:58:52.795Z,0.84
